Time;durP1;ratioP1;P1;durP2;ratioP2;P2;SDS_P1;SDS_P2;PMS_P1;PMS_P2;Temp;Humidity;BMP_temperature;BMP_pressure;BME280_temperature;BME280_humidity;BME280_pressure;Samples;Min_cycle;Max_cycle;Signal;HPM_P1;HPM_P2
2021/10/20 00:00:24;;;;;;;6.50;3.73;;;11.90;99.90;;;;;;5118001;28;20055;-69
2021/10/20 00:02:50;;;;;;;7.97;4.25;;;11.90;99.90;;;;;;5099113;28;20028;-69
2021/10/20 00:05:17;;;;;;;9.15;4.55;;;11.80;99.90;;;;;;5117606;28;20457;-69
2021/10/20 00:07:44;;;;;;;6.10;4.30;;;11.80;99.90;;;;;;5099191;28;20020;-69
2021/10/20 00:10:11;;;;;;;5.53;4.00;;;11.80;99.90;;;;;;5117246;28;20020;-68
2021/10/20 00:12:37;;;;;;;6.60;3.83;;;11.80;99.90;;;;;;5117449;28;20092;-70
2021/10/20 00:15:05;;;;;;;;;;;11.70;99.90;;;;;;5099558;28;20122;-69
2021/10/20 00:17:32;;;;;;;8.25;3.80;;;11.70;99.90;;;;;;5099080;28;19904;-68
2021/10/20 00:20:05;;;;;;;6.80;3.83;;;11.70;99.90;;;;;;5098758;28;20038;-69
2021/10/20 00:22:31;;;;;;;6.70;3.70;;;11.70;99.90;;;;;;5117708;28;20376;-69
2021/10/20 00:24:56;;;;;;;7.13;3.63;;;11.70;99.90;;;;;;5117810;28;20024;-69
2021/10/20 00:27:22;;;;;;;6.83;3.90;;;11.60;99.90;;;;;;5116970;28;20027;-69
2021/10/20 00:29:48;;;;;;;6.03;3.87;;;11.70;99.90;;;;;;5116924;28;20023;-69
2021/10/20 00:32:13;;;;;;;8.87;4.07;;;11.70;99.90;;;;;;5116780;28;20261;-69
2021/10/20 00:34:39;;;;;;;6.13;3.40;;;11.70;99.90;;;;;;5117141;28;20024;-69
2021/10/20 00:37:04;;;;;;;7.57;4.40;;;11.60;99.90;;;;;;5116698;28;20268;-69
2021/10/20 00:39:30;;;;;;;7.37;3.67;;;11.60;99.90;;;;;;5098306;28;20027;-69
2021/10/20 00:41:56;;;;;;;9.80;4.83;;;11.60;99.90;;;;;;5116617;28;20020;-69
2021/10/20 00:44:21;;;;;;;6.07;3.93;;;11.50;99.90;;;;;;5116426;28;20269;-68
2021/10/20 00:46:47;;;;;;;7.47;3.43;;;11.50;99.90;;;;;;5116594;28;20069;-69
2021/10/20 00:49:13;;;;;;;7.20;4.38;;;11.40;99.90;;;;;;5116672;28;20016;-68
2021/10/20 00:51:39;;;;;;;6.93;3.93;;;11.40;99.90;;;;;;5116306;28;20030;-69
2021/10/20 00:54:04;;;;;;;6.33;4.00;;;11.30;99.90;;;;;;5116346;28;20633;-68
2021/10/20 00:56:31;;;;;;;5.53;3.73;;;11.40;99.90;;;;;;5116313;28;20457;-69
2021/10/20 00:58:57;;;;;;;6.70;3.65;;;11.30;99.90;;;;;;5097817;28;20316;-69
2021/10/20 01:01:23;;;;;;;6.45;3.63;;;11.30;99.90;;;;;;5116089;28;20092;-68
2021/10/20 01:03:49;;;;;;;6.87;4.60;;;11.30;99.90;;;;;;5116123;28;20024;-69
2021/10/20 01:06:16;;;;;;;30.73;13.70;;;11.30;99.90;;;;;;5097835;28;20468;-70
2021/10/20 01:08:41;;;;;;;35.90;17.45;;;11.20;99.90;;;;;;5115146;28;20035;-70
2021/10/20 01:11:07;;;;;;;18.17;9.37;;;11.30;99.90;;;;;;5115946;28;20026;-70
2021/10/20 01:13:33;;;;;;;52.47;23.83;;;11.40;99.90;;;;;;5115846;28;20031;-70
2021/10/20 01:16:00;;;;;;;46.33;23.77;;;11.30;99.90;;;;;;5116003;28;20025;-70
2021/10/20 01:18:26;;;;;;;22.38;12.95;;;11.20;99.90;;;;;;5115801;28;20027;-70
2021/10/20 01:20:56;;;;;;;30.25;17.08;;;11.20;99.90;;;;;;5115998;28;20028;-70
2021/10/20 01:23:22;;;;;;;11.75;7.70;;;11.20;99.90;;;;;;5097397;28;20031;-68
2021/10/20 01:25:48;;;;;;;18.97;10.43;;;11.20;99.90;;;;;;5115739;28;20026;-69
2021/10/20 01:28:14;;;;;;;33.65;22.40;;;11.30;99.90;;;;;;5115590;28;20078;-69
2021/10/20 01:30:41;;;;;;;21.05;14.77;;;11.30;99.90;;;;;;5115555;28;20034;-69
2021/10/20 01:33:07;;;;;;;11.55;7.60;;;11.30;99.90;;;;;;5115530;28;20104;-68
2021/10/20 01:35:33;;;;;;;18.17;13.67;;;11.30;99.90;;;;;;5115756;28;20436;-68
2021/10/20 01:38:00;;;;;;;8.90;5.45;;;11.30;99.90;;;;;;5115274;28;20388;-69
2021/10/20 01:40:31;;;;;;;10.02;5.93;;;11.30;99.90;;;;;;5115311;28;20024;-71
2021/10/20 01:42:56;;;;;;;6.22;3.80;;;11.40;99.90;;;;;;5115617;28;20027;-69
2021/10/20 01:45:22;;;;;;;5.90;3.83;;;11.40;99.90;;;;;;5115241;28;20068;-69
2021/10/20 01:47:48;;;;;;;8.93;4.50;;;11.30;99.90;;;;;;5115370;28;20094;-69
2021/10/20 01:50:15;;;;;;;6.50;3.97;;;11.40;99.90;;;;;;5115407;28;20024;-69
2021/10/20 01:52:41;;;;;;;7.32;3.60;;;11.50;99.90;;;;;;5115087;28;20253;-68
2021/10/20 01:55:09;;;;;;;4.80;3.33;;;11.40;99.90;;;;;;5115004;28;20068;-68
2021/10/20 01:57:35;;;;;;;6.95;3.60;;;11.40;99.90;;;;;;5114746;28;20023;-68
2021/10/20 02:00:00;;;;;;;6.87;3.67;;;11.40;99.90;;;;;;5114971;28;20032;-69
2021/10/20 02:02:26;;;;;;;6.57;4.50;;;11.40;99.90;;;;;;5114963;28;20028;-72
2021/10/20 02:04:52;;;;;;;7.93;5.10;;;11.50;99.90;;;;;;5096695;28;20024;-69
2021/10/20 02:07:18;;;;;;;5.88;3.92;;;11.50;99.90;;;;;;5114859;28;20020;-69
2021/10/20 02:09:44;;;;;;;9.82;4.00;;;11.50;99.90;;;;;;5114831;28;20032;-69
2021/10/20 02:12:09;;;;;;;8.15;3.47;;;11.50;99.90;;;;;;5096470;28;20049;-68
2021/10/20 02:14:36;;;;;;;4.97;3.53;;;11.50;99.90;;;;;;5114787;28;20503;-68
2021/10/20 02:17:02;;;;;;;;;;;11.50;99.90;;;;;;5115531;28;20024;-69
2021/10/20 02:19:27;;;;;;;7.03;3.20;;;11.50;99.90;;;;;;5096475;28;20413;-69
2021/10/20 02:21:58;;;;;;;7.97;3.93;;;11.50;99.90;;;;;;5095471;28;20495;-69
2021/10/20 02:24:24;;;;;;;4.35;3.47;;;11.30;99.90;;;;;;5114631;28;20016;-69
2021/10/20 02:26:49;;;;;;;8.30;3.10;;;11.30;99.90;;;;;;5096206;28;20103;-69
2021/10/20 02:29:15;;;;;;;5.15;3.55;;;11.30;99.90;;;;;;5115759;28;20505;-69
2021/10/20 02:31:46;;;;;;;4.72;3.25;;;11.40;99.90;;;;;;5115458;28;20023;-70
2021/10/20 02:34:16;;;;;;;7.25;3.58;;;11.30;99.90;;;;;;5114475;28;20492;-69
2021/10/20 02:36:42;;;;;;;5.35;3.30;;;11.30;99.90;;;;;;5114369;28;20041;-69
2021/10/20 02:39:09;;;;;;;8.10;3.30;;;11.20;99.90;;;;;;5114211;28;20038;-69
2021/10/20 02:41:35;;;;;;;5.63;3.35;;;11.20;99.90;;;;;;5114226;28;20476;-68
2021/10/20 02:44:00;;;;;;;5.88;3.28;;;11.20;99.90;;;;;;5114053;28;20027;-69
2021/10/20 02:46:26;;;;;;;5.97;3.70;;;11.10;99.90;;;;;;5114313;28;20058;-68
2021/10/20 02:48:52;;;;;;;5.90;3.60;;;11.10;99.90;;;;;;5114069;28;20020;-69
2021/10/20 02:51:17;;;;;;;6.43;3.37;;;11.20;99.90;;;;;;5114432;28;20103;-68
2021/10/20 02:53:43;;;;;;;6.65;3.72;;;11.20;99.90;;;;;;5114316;28;20054;-69
2021/10/20 02:56:08;;;;;;;5.93;3.50;;;11.20;99.90;;;;;;5114234;28;20034;-69
2021/10/20 02:58:34;;;;;;;6.60;3.60;;;11.10;99.90;;;;;;5113816;28;20063;-68
2021/10/20 03:01:00;;;;;;;8.23;3.67;;;11.20;99.90;;;;;;5113851;28;20034;-69
2021/10/20 03:03:25;;;;;;;4.93;3.50;;;11.10;99.90;;;;;;5113910;28;20024;-69
2021/10/20 03:05:51;;;;;;;5.87;3.97;;;11.10;99.90;;;;;;5113810;28;20381;-68
2021/10/20 03:08:16;;;;;;;8.43;4.87;;;11.00;99.90;;;;;;5113570;28;20289;-68
2021/10/20 03:10:42;;;;;;;8.37;3.83;;;11.10;99.90;;;;;;5113653;28;20464;-69
2021/10/20 03:13:09;;;;;;;5.82;3.15;;;11.00;99.90;;;;;;5095418;28;20084;-70
2021/10/20 03:15:34;;;;;;;5.38;3.60;;;11.00;99.90;;;;;;5113642;28;20024;-69
2021/10/20 03:18:00;;;;;;;7.53;3.87;;;11.00;99.90;;;;;;5113605;28;20028;-69
2021/10/20 03:20:26;;;;;;;6.17;3.87;;;11.10;99.90;;;;;;5095743;28;20764;-69
2021/10/20 03:22:52;;;;;;;5.53;3.70;;;11.10;99.90;;;;;;5095277;28;20035;-69
2021/10/20 03:25:17;;;;;;;8.80;4.30;;;11.10;99.90;;;;;;5113584;28;20102;-70
2021/10/20 03:27:46;;;;;;;5.97;4.13;;;10.90;99.90;;;;;;5113384;28;20272;-69
2021/10/20 03:30:13;;;;;;;5.20;3.83;;;11.00;99.90;;;;;;5095202;28;20598;-69
2021/10/20 03:32:38;;;;;;;6.55;4.10;;;11.10;99.90;;;;;;5094923;28;20057;-69
2021/10/20 03:35:05;;;;;;;6.97;4.37;;;11.00;99.90;;;;;;5099455;28;20020;-69
2021/10/20 03:37:31;;;;;;;8.90;4.47;;;10.90;99.90;;;;;;5113526;28;20080;-69
2021/10/20 03:39:56;;;;;;;8.57;4.55;;;11.00;99.90;;;;;;5113450;28;20476;-69
2021/10/20 03:42:22;;;;;;;5.57;3.83;;;10.90;99.90;;;;;;5113453;28;20032;-68
2021/10/20 03:44:48;;;;;;;6.90;3.60;;;10.80;99.90;;;;;;5095126;28;20034;-69
2021/10/20 03:47:13;;;;;;;8.73;4.17;;;10.80;99.90;;;;;;5113311;28;20472;-69
2021/10/20 03:49:39;;;;;;;9.53;4.80;;;10.90;99.90;;;;;;5113930;28;20409;-68
2021/10/20 03:52:05;;;;;;;6.83;4.10;;;10.80;99.90;;;;;;5113571;28;20258;-69
2021/10/20 03:54:30;;;;;;;6.97;4.18;;;10.90;99.90;;;;;;5095269;28;20557;-69
2021/10/20 03:56:56;;;;;;;5.33;3.77;;;10.80;99.90;;;;;;5113648;28;20492;-69
2021/10/20 03:59:21;;;;;;;8.10;4.73;;;10.70;99.90;;;;;;5094998;28;20081;-69
2021/10/20 04:01:47;;;;;;;7.77;4.53;;;10.70;99.90;;;;;;5113777;28;20073;-69
2021/10/20 04:04:13;;;;;;;7.17;4.37;;;10.70;99.90;;;;;;5116671;28;20528;-69
2021/10/20 04:06:38;;;;;;;17.13;9.10;;;10.80;99.90;;;;;;5095180;28;20033;-68
2021/10/20 04:09:05;;;;;;;7.53;4.40;;;10.70;99.90;;;;;;5113596;28;20027;-68
2021/10/20 04:11:31;;;;;;;8.63;5.28;;;10.80;99.90;;;;;;5095296;28;20027;-69
2021/10/20 04:13:56;;;;;;;9.43;4.40;;;10.70;99.90;;;;;;5113483;28;20073;-70
2021/10/20 04:16:22;;;;;;;8.57;4.70;;;10.70;99.90;;;;;;5113708;28;20055;-70
2021/10/20 04:18:47;;;;;;;13.00;5.83;;;10.60;99.90;;;;;;5095046;28;20035;-70
2021/10/20 04:21:13;;;;;;;9.57;5.50;;;10.50;99.90;;;;;;5113153;28;20031;-70
2021/10/20 04:23:39;;;;;;;8.10;4.37;;;10.50;99.90;;;;;;5113361;28;20120;-70
2021/10/20 04:26:04;;;;;;;7.40;4.20;;;10.60;99.90;;;;;;5113840;28;20024;-70
2021/10/20 04:28:30;;;;;;;8.63;4.53;;;10.60;99.90;;;;;;5113147;28;20028;-70
2021/10/20 04:30:55;;;;;;;19.77;7.13;;;10.50;99.90;;;;;;5095192;28;20026;-70
2021/10/20 04:33:21;;;;;;;12.07;6.33;;;10.50;99.90;;;;;;5094794;28;20484;-70
2021/10/20 04:35:47;;;;;;;13.17;6.67;;;10.60;99.90;;;;;;5115958;28;20028;-70
2021/10/20 04:38:12;;;;;;;16.87;9.17;;;10.50;99.90;;;;;;5113921;28;20027;-70
2021/10/20 04:40:38;;;;;;;14.80;7.87;;;10.50;99.90;;;;;;5095251;28;20028;-70
2021/10/20 04:43:04;;;;;;;10.00;5.30;;;10.50;99.90;;;;;;5113361;28;20024;-70
2021/10/20 04:45:29;;;;;;;6.63;4.17;;;10.40;99.90;;;;;;5116530;28;20058;-70
2021/10/20 04:47:55;;;;;;;17.17;8.63;;;10.40;99.90;;;;;;5098753;28;20265;-70
2021/10/20 04:50:20;;;;;;;13.37;8.07;;;10.50;99.90;;;;;;5116746;28;20078;-69
2021/10/20 04:52:46;;;;;;;8.60;4.87;;;10.50;99.90;;;;;;5116674;28;20492;-70
2021/10/20 04:55:12;;;;;;;12.40;7.63;;;10.50;99.90;;;;;;5098141;28;20118;-70
2021/10/20 04:57:37;;;;;;;10.33;5.30;;;10.40;99.90;;;;;;5120341;28;20031;-71
2021/10/20 05:00:05;;;;;;;7.15;3.85;;;10.40;99.90;;;;;;5104141;28;20122;-71
2021/10/20 05:02:35;;;;;;;7.50;4.40;;;10.60;99.90;;;;;;5117946;28;20031;-71
2021/10/20 05:05:03;;;;;;;9.65;5.10;;;10.50;99.90;;;;;;5098139;28;20042;-71
2021/10/20 05:07:28;;;;;;;6.78;4.28;;;10.50;99.90;;;;;;5097703;28;20426;-71
2021/10/20 05:09:54;;;;;;;7.83;4.97;;;10.40;99.90;;;;;;5117137;28;20042;-70
2021/10/20 05:12:19;;;;;;;9.97;5.00;;;10.40;99.90;;;;;;5118167;28;20024;-70
2021/10/20 05:14:45;;;;;;;6.80;4.10;;;10.40;99.90;;;;;;5116143;28;20125;-70
2021/10/20 05:17:11;;;;;;;7.70;4.57;;;10.50;99.90;;;;;;5116698;28;20499;-70
2021/10/20 05:19:36;;;;;;;7.90;4.20;;;10.50;99.90;;;;;;5097549;28;20076;-71
2021/10/20 05:22:02;;;;;;;9.23;5.60;;;10.50;99.90;;;;;;5115851;28;20537;-70
2021/10/20 05:24:28;;;;;;;8.05;4.18;;;10.50;99.90;;;;;;5116132;28;20020;-71
2021/10/20 05:26:54;;;;;;;10.40;4.97;;;10.50;99.90;;;;;;5097270;28;20062;-70
2021/10/20 05:29:21;;;;;;;8.90;4.63;;;10.50;99.90;;;;;;5115807;28;20276;-71
2021/10/20 05:31:47;;;;;;;7.82;3.95;;;10.50;99.90;;;;;;5115630;28;20032;-71
2021/10/20 05:34:12;;;;;;;11.85;4.45;;;10.50;99.90;;;;;;5097524;28;20031;-71
2021/10/20 05:36:38;;;;;;;6.53;4.60;;;10.50;99.90;;;;;;5115413;28;20149;-71
2021/10/20 05:39:05;;;;;;;9.90;4.53;;;10.50;99.90;;;;;;5097580;28;20073;-71
2021/10/20 05:41:32;;;;;;;8.15;4.38;;;10.60;99.90;;;;;;5115830;28;20026;-70
2021/10/20 05:43:57;;;;;;;6.65;4.40;;;10.60;99.90;;;;;;5097738;28;20046;-71
2021/10/20 05:46:23;;;;;;;13.13;4.43;;;10.60;99.90;;;;;;5115779;28;20059;-71
2021/10/20 05:48:48;;;;;;;6.43;4.23;;;10.60;99.90;;;;;;5097543;28;20020;-70
2021/10/20 05:51:14;;;;;;;6.57;4.57;;;10.70;99.90;;;;;;5115549;28;20528;-69
2021/10/20 05:54:03;;;;;;;6.43;4.10;;;10.70;99.90;;;;;;5115446;28;20323;-69
2021/10/20 05:56:29;;;;;;;8.43;4.70;;;10.70;99.90;;;;;;5116810;28;20074;-72
2021/10/20 05:58:55;;;;;;;8.60;4.45;;;10.70;99.90;;;;;;5097313;28;20043;-71
2021/10/20 06:01:23;;;;;;;7.90;3.83;;;10.70;99.90;;;;;;5115317;28;20046;-71
2021/10/20 06:03:49;;;;;;;7.60;4.38;;;10.80;99.90;;;;;;5097083;28;20743;-71
2021/10/20 06:06:15;;;;;;;8.27;4.50;;;10.80;99.90;;;;;;5096589;28;20074;-71
2021/10/20 06:08:41;;;;;;;7.85;3.88;;;10.80;99.90;;;;;;5095298;28;20023;-70
2021/10/20 06:11:07;;;;;;;7.53;4.90;;;11.00;99.90;;;;;;5096259;28;20073;-71
2021/10/20 06:13:32;;;;;;;9.73;5.53;;;11.00;99.90;;;;;;5115086;28;20036;-71
2021/10/20 06:15:58;;;;;;;9.60;4.57;;;10.90;99.90;;;;;;5114880;28;20476;-71
2021/10/20 06:18:24;;;;;;;10.00;4.73;;;10.90;99.90;;;;;;5096815;28;20613;-70
2021/10/20 06:20:49;;;;;;;10.60;4.78;;;10.80;99.90;;;;;;5096760;28;20023;-71
2021/10/20 06:23:15;;;;;;;9.43;4.53;;;10.80;99.90;;;;;;5096413;28;20434;-71
2021/10/20 06:25:41;;;;;;;6.57;3.37;;;10.80;99.90;;;;;;5096799;28;20118;-71
2021/10/20 06:28:06;;;;;;;8.07;3.70;;;10.80;99.90;;;;;;5096348;28;20070;-71
2021/10/20 06:30:32;;;;;;;8.70;4.33;;;10.80;99.90;;;;;;5114961;28;20315;-71
2021/10/20 06:32:58;;;;;;;8.57;4.30;;;10.90;99.90;;;;;;5097613;28;20073;-71
2021/10/20 06:35:23;;;;;;;8.80;4.32;;;10.90;99.90;;;;;;5114639;28;20047;-71
2021/10/20 06:37:53;;;;;;;7.23;3.77;;;10.80;99.90;;;;;;5116453;28;20452;-71
2021/10/20 06:40:19;;;;;;;8.55;3.85;;;10.80;99.90;;;;;;5116636;28;20072;-71
2021/10/20 06:42:45;;;;;;;6.95;4.10;;;10.90;99.90;;;;;;5114399;28;20102;-71
2021/10/20 06:45:10;;;;;;;5.60;3.27;;;10.90;99.90;;;;;;5114266;28;20028;-71
2021/10/20 06:47:36;;;;;;;5.78;3.67;;;10.90;99.90;;;;;;5095868;28;20049;-71
2021/10/20 06:50:03;;;;;;;7.28;3.75;;;11.00;99.90;;;;;;5114817;28;20388;-71
2021/10/20 06:52:29;;;;;;;7.38;3.55;;;11.00;99.90;;;;;;5096222;28;20031;-71
2021/10/20 06:54:54;;;;;;;6.60;3.80;;;11.00;99.90;;;;;;5114772;28;20076;-71
2021/10/20 06:57:20;;;;;;;8.93;4.17;;;11.00;99.90;;;;;;5114046;28;20028;-71
2021/10/20 06:59:46;;;;;;;10.83;4.60;;;11.10;99.90;;;;;;5113973;28;20051;-71
2021/10/20 07:02:12;;;;;;;8.07;4.45;;;11.10;99.90;;;;;;5114176;28;20043;-71
2021/10/20 07:04:37;;;;;;;10.00;4.30;;;11.10;99.90;;;;;;5114227;28;20032;-71
2021/10/20 07:07:06;;;;;;;7.68;3.92;;;11.20;99.90;;;;;;5114413;28;20019;-71
2021/10/20 07:09:31;;;;;;;9.35;4.75;;;11.30;99.90;;;;;;5114926;28;20388;-71
2021/10/20 07:11:58;;;;;;;6.05;3.83;;;11.50;99.90;;;;;;5114232;28;20034;-71
2021/10/20 07:14:23;;;;;;;;;;;11.50;99.90;;;;;;5114817;28;20058;-71
2021/10/20 07:16:49;;;;;;;7.82;4.40;;;11.50;99.90;;;;;;5115411;28;19904;-71
2021/10/20 07:19:15;;;;;;;10.20;6.28;;;11.50;99.90;;;;;;5097044;28;20032;-72
2021/10/20 07:21:40;;;;;;;13.70;5.03;;;11.60;99.90;;;;;;5114646;28;20027;-71
2021/10/20 07:24:06;;;;;;;8.43;4.30;;;11.60;99.90;;;;;;5096118;28;20253;-71
2021/10/20 07:26:32;;;;;;;7.93;4.60;;;11.70;99.90;;;;;;5096283;28;20026;-71
2021/10/20 07:28:58;;;;;;;10.23;4.45;;;11.80;99.90;;;;;;5114657;28;20024;-72
2021/10/20 07:31:29;;;;;;;8.77;4.40;;;11.80;99.90;;;;;;5114901;28;20027;-71
2021/10/20 07:33:59;;;;;;;5.70;3.95;;;11.90;99.90;;;;;;5114684;28;20027;-70
2021/10/20 07:36:25;;;;;;;7.40;3.92;;;12.00;99.90;;;;;;5114085;28;20038;-70
2021/10/20 07:38:50;;;;;;;7.97;4.10;;;12.10;99.90;;;;;;5114712;28;20028;-71
2021/10/20 07:41:16;;;;;;;8.88;4.45;;;12.30;99.90;;;;;;5095811;28;20476;-71
2021/10/20 07:43:42;;;;;;;8.73;4.40;;;12.40;99.90;;;;;;5114315;28;20121;-71
2021/10/20 07:46:07;;;;;;;10.10;5.33;;;12.50;99.90;;;;;;5096092;28;20288;-71
2021/10/20 07:48:33;;;;;;;7.77;4.53;;;12.70;99.90;;;;;;5095957;28;20024;-71
2021/10/20 07:50:59;;;;;;;7.40;3.90;;;12.80;99.90;;;;;;5095997;28;20031;-71
2021/10/20 07:53:24;;;;;;;11.03;4.37;;;13.00;99.90;;;;;;5095878;28;20258;-71
2021/10/20 07:55:50;;;;;;;8.25;4.28;;;13.20;99.90;;;;;;5096017;28;20047;-71
2021/10/20 07:58:16;;;;;;;8.30;4.43;;;13.20;99.90;;;;;;5114029;28;20024;-70
2021/10/20 08:00:42;;;;;;;7.90;4.00;;;13.30;99.90;;;;;;5095040;28;20034;-70
2021/10/20 08:03:07;;;;;;;7.32;4.10;;;13.40;99.90;;;;;;5113432;28;20161;-71
2021/10/20 08:05:33;;;;;;;9.90;4.77;;;13.50;99.90;;;;;;5095172;28;20483;-71
2021/10/20 08:07:59;;;;;;;8.23;5.30;;;13.60;99.90;;;;;;5095808;28;20345;-71
2021/10/20 08:10:27;;;;;;;11.02;6.80;;;13.70;99.90;;;;;;5114044;28;20027;-71
2021/10/20 08:12:54;;;;;;;10.90;6.38;;;13.90;99.90;;;;;;5096225;28;20032;-72
2021/10/20 08:15:20;;;;;;;10.90;5.95;;;14.00;99.90;;;;;;5114463;28;20077;-71
2021/10/20 08:17:46;;;;;;;7.55;4.80;;;14.10;99.90;;;;;;5114622;28;20107;-71
2021/10/20 08:20:17;;;;;;;10.18;6.20;;;14.30;99.90;;;;;;5118721;28;20031;-71
2021/10/20 08:22:43;;;;;;;13.18;5.97;;;14.40;99.90;;;;;;5119057;28;20031;-71
2021/10/20 08:25:10;;;;;;;9.23;4.93;;;14.50;99.90;;;;;;5118268;28;20019;-71
2021/10/20 08:27:37;;;;;;;6.30;4.10;;;14.60;99.90;;;;;;5118639;28;20046;-70
2021/10/20 08:30:05;;;;;;;5.47;3.70;;;14.60;99.90;;;;;;5101030;28;20023;-71
2021/10/20 08:32:31;;;;;;;6.20;3.55;;;14.70;99.90;;;;;;5100196;28;20032;-71
2021/10/20 08:34:56;;;;;;;5.35;4.15;;;14.90;99.90;;;;;;5100092;28;20020;-71
2021/10/20 08:37:22;;;;;;;10.40;6.45;;;15.00;99.90;;;;;;5117779;28;20115;-72
2021/10/20 08:39:48;;;;;;;15.30;8.37;;;15.10;99.90;;;;;;5099158;28;20032;-71
2021/10/20 08:42:14;;;;;;;9.18;5.75;;;15.10;99.90;;;;;;5098971;28;20342;-71
2021/10/20 08:44:40;;;;;;;8.45;4.82;;;15.20;99.90;;;;;;5117812;28;20028;-69
2021/10/20 08:47:08;;;;;;;10.32;6.05;;;15.40;99.90;;;;;;5117631;28;20034;-70
2021/10/20 08:49:34;;;;;;;7.78;4.68;;;15.60;99.90;;;;;;5098977;28;20034;-70
2021/10/20 08:52:00;;;;;;;;;;;15.70;99.90;;;;;;5099297;28;20537;-70
2021/10/20 08:54:25;;;;;;;5.95;4.15;;;15.80;99.90;;;;;;5117176;28;19908;-70
2021/10/20 08:56:52;;;;;;;7.13;4.13;;;15.90;99.90;;;;;;5117122;28;20024;-70
2021/10/20 08:59:20;;;;;;;7.95;4.22;;;15.90;99.90;;;;;;5117165;28;20020;-70
2021/10/20 09:01:46;;;;;;;6.72;4.03;;;15.90;99.90;;;;;;5116643;28;20041;-70
2021/10/20 09:04:11;;;;;;;5.38;3.90;;;16.00;99.90;;;;;;5098699;28;20019;-70
2021/10/20 09:06:37;;;;;;;7.00;3.53;;;16.20;99.90;;;;;;5116564;28;20077;-70
2021/10/20 09:09:07;;;;;;;5.40;3.38;;;16.40;99.90;;;;;;5116876;28;20100;-70
2021/10/20 09:11:33;;;;;;;6.35;3.10;;;16.60;99.90;;;;;;5116360;28;20095;-71
2021/10/20 09:14:04;;;;;;;6.10;3.97;;;16.70;99.90;;;;;;5098327;28;20059;-70
2021/10/20 09:16:31;;;;;;;4.07;2.47;;;16.90;99.90;;;;;;5116550;28;20026;-71
2021/10/20 09:18:58;;;;;;;11.05;3.13;;;17.10;99.90;;;;;;5098435;28;20032;-71
2021/10/20 09:21:25;;;;;;;5.43;3.30;;;17.30;99.90;;;;;;5116363;28;20521;-71
2021/10/20 09:23:51;;;;;;;3.72;2.50;;;17.50;99.90;;;;;;5098080;28;20030;-70
2021/10/20 09:26:17;;;;;;;4.57;2.83;;;17.60;99.90;;;;;;5097794;28;20020;-70
2021/10/20 09:28:43;;;;;;;4.78;2.30;;;17.80;99.90;;;;;;5098038;28;20088;-70
2021/10/20 09:31:10;;;;;;;3.95;2.30;;;17.90;99.90;;;;;;5115654;28;20405;-70
2021/10/20 09:33:41;;;;;;;3.38;2.47;;;17.90;99.90;;;;;;5097700;28;20027;-70
2021/10/20 09:36:14;;;;;;;4.03;2.70;;;18.00;99.90;;;;;;5116292;28;20016;-70
2021/10/20 09:38:52;;;;;;;4.38;2.53;;;18.00;99.90;;;;;;5097956;28;20415;-70
2021/10/20 09:41:18;;;;;;;4.60;2.53;;;18.20;99.90;;;;;;5116178;28;20023;-70
2021/10/20 09:43:55;;;;;;;4.05;2.55;;;18.70;99.90;;;;;;5116890;28;20038;-70
2021/10/20 09:46:50;;;;;;;6.22;2.78;;;19.00;99.90;;;;;;5098743;28;20031;-70
2021/10/20 09:49:21;;;;;;;4.90;2.72;;;19.30;99.90;;;;;;5098960;28;20027;-70
2021/10/20 09:51:47;;;;;;;5.18;2.50;;;19.40;99.90;;;;;;5097214;28;20031;-70
2021/10/20 09:54:33;;;;;;;8.07;5.78;;;19.40;99.90;;;;;;5115793;28;20031;-71
2021/10/20 09:57:01;;;;;;;8.68;2.70;;;20.80;99.90;;;;;;5115461;28;20020;-71
2021/10/20 09:59:27;;;;;;;4.00;2.78;;;23.00;98.00;;;;;;5097179;28;20023;-71
2021/10/20 10:01:53;;;;;;;4.07;2.45;;;24.70;95.60;;;;;;5115640;28;20034;-71
2021/10/20 10:04:19;;;;;;;3.00;2.10;;;25.90;92.70;;;;;;5115581;28;20019;-71
2021/10/20 10:06:46;;;;;;;;;;;26.90;90.50;;;;;;5115953;28;20073;-71
2021/10/20 10:09:12;;;;;;;4.60;2.60;;;26.50;89.50;;;;;;5097422;28;20405;-69
2021/10/20 10:11:46;;;;;;;3.92;2.42;;;27.70;87.50;;;;;;5115477;28;20034;-70
2021/10/20 10:14:14;;;;;;;3.70;2.50;;;28.00;84.30;;;;;;5118880;28;20024;-70
2021/10/20 10:16:42;;;;;;;4.95;2.65;;;27.30;84.60;;;;;;5121117;28;20092;-70
2021/10/20 10:19:10;;;;;;;4.35;2.10;;;27.30;84.20;;;;;;5097155;28;20068;-70
2021/10/20 10:21:42;;;;;;;5.75;3.17;;;27.20;84.40;;;;;;5097221;28;20114;-70
2021/10/20 10:24:18;;;;;;;3.75;2.58;;;27.90;82.70;;;;;;5114699;28;20020;-70
2021/10/20 10:26:58;;;;;;;;;;;27.80;82.50;;;;;;5098871;28;20065;-69
2021/10/20 10:29:24;;;;;;;3.05;2.13;;;27.50;82.30;;;;;;5114931;28;19899;-69
2021/10/20 10:31:51;;;;;;;5.50;2.60;;;27.80;81.70;;;;;;5096839;28;20522;-69
2021/10/20 10:34:30;;;;;;;4.05;2.28;;;28.40;80.30;;;;;;5114184;28;20024;-69
2021/10/20 10:36:59;;;;;;;5.15;2.33;;;28.50;79.10;;;;;;5114255;28;20019;-69
2021/10/20 10:39:29;;;;;;;4.32;1.92;;;28.90;78.10;;;;;;5095967;28;20026;-70
2021/10/20 10:42:03;;;;;;;3.67;2.08;;;28.90;77.30;;;;;;5113414;28;20489;-69
2021/10/20 10:44:30;;;;;;;4.70;2.28;;;27.80;78.40;;;;;;5114300;28;20019;-69
2021/10/20 10:47:18;;;;;;;4.85;2.40;;;26.90;80.90;;;;;;5114714;28;20023;-70
2021/10/20 10:49:53;;;;;;;4.63;2.35;;;26.20;81.60;;;;;;5096327;28;20024;-70
2021/10/20 10:52:38;;;;;;;2.53;2.10;;;25.20;83.60;;;;;;5114931;28;20069;-70
2021/10/20 10:55:13;;;;;;;4.70;2.45;;;24.20;85.80;;;;;;5114526;28;20118;-70
2021/10/20 10:57:39;;;;;;;2.55;1.88;;;23.80;87.60;;;;;;5114140;28;20019;-70
2021/10/20 11:00:17;;;;;;;;;;;23.50;89.10;;;;;;5096405;28;20503;-70
2021/10/20 11:02:51;;;;;;;3.22;2.13;;;23.20;90.10;;;;;;5114611;28;20008;-70
2021/10/20 11:05:20;;;;;;;5.97;2.22;;;23.20;90.30;;;;;;5114833;28;20064;-70
2021/10/20 11:07:49;;;;;;;4.47;2.53;;;22.90;90.90;;;;;;5095965;28;20016;-70
2021/10/20 11:10:17;;;;;;;2.95;2.03;;;22.60;91.30;;;;;;5095965;28;20026;-70
2021/10/20 11:12:51;;;;;;;4.85;2.30;;;22.40;91.40;;;;;;5114030;28;20399;-70
2021/10/20 11:15:18;;;;;;;3.95;2.20;;;22.20;91.50;;;;;;5095967;28;20042;-70
2021/10/20 11:17:43;;;;;;;5.57;2.28;;;22.20;91.90;;;;;;5113877;28;20032;-70
2021/10/20 11:20:12;;;;;;;2.78;1.98;;;22.30;91.70;;;;;;5113638;28;20015;-70
2021/10/20 11:22:38;;;;;;;5.78;2.33;;;22.40;91.60;;;;;;5113551;28;20047;-70
2021/10/20 11:25:07;;;;;;;6.35;2.20;;;22.50;91.70;;;;;;5113546;28;20029;-69
2021/10/20 11:27:34;;;;;;;4.03;2.10;;;22.50;91.60;;;;;;5113644;28;20039;-70
2021/10/20 11:29:59;;;;;;;3.40;2.03;;;22.50;91.70;;;;;;5114121;28;20422;-69
2021/10/20 11:32:25;;;;;;;5.60;2.30;;;22.40;91.90;;;;;;5114173;28;20027;-71
2021/10/20 11:34:52;;;;;;;5.55;2.67;;;22.20;92.00;;;;;;5114164;28;20066;-71
2021/10/20 11:37:22;;;;;;;4.63;2.13;;;21.90;92.20;;;;;;5095199;28;20096;-71
2021/10/20 11:39:57;;;;;;;4.03;2.10;;;21.80;92.80;;;;;;5114089;28;20103;-71
2021/10/20 11:42:24;;;;;;;7.32;2.72;;;21.70;92.60;;;;;;5113904;28;20027;-70
2021/10/20 11:44:51;;;;;;;2.88;2.10;;;21.60;93.00;;;;;;5114452;28;20466;-70
2021/10/20 11:47:18;;;;;;;6.47;2.22;;;21.40;93.10;;;;;;5114615;28;20020;-71
2021/10/20 11:49:54;;;;;;;4.47;2.65;;;21.30;93.10;;;;;;5114221;28;20019;-71
2021/10/20 11:52:22;;;;;;;3.30;2.00;;;21.20;93.40;;;;;;5095531;28;20024;-71
2021/10/20 11:54:48;;;;;;;3.75;2.20;;;21.00;93.60;;;;;;5117938;28;20032;-71
2021/10/20 11:57:18;;;;;;;6.35;2.75;;;20.90;93.90;;;;;;5099255;28;20142;-71
2021/10/20 11:59:45;;;;;;;3.58;2.22;;;20.70;94.30;;;;;;5117602;28;20110;-70
2021/10/20 12:02:12;;;;;;;6.03;2.25;;;20.60;94.40;;;;;;5099122;28;20153;-70
2021/10/20 12:04:39;;;;;;;3.75;1.80;;;20.50;94.60;;;;;;5117623;28;20019;-71
2021/10/20 12:07:06;;;;;;;2.70;2.35;;;20.40;94.90;;;;;;5117591;28;20060;-71
2021/10/20 12:09:33;;;;;;;3.42;2.22;;;20.30;95.10;;;;;;5100256;28;20161;-71
2021/10/20 12:12:01;;;;;;;3.90;2.20;;;20.30;95.30;;;;;;5118069;28;20019;-71
2021/10/20 12:14:36;;;;;;;4.10;2.03;;;20.20;95.50;;;;;;5118021;28;20411;-71
2021/10/20 12:17:06;;;;;;;8.23;2.20;;;20.10;95.70;;;;;;5100863;28;20028;-71
2021/10/20 12:19:34;;;;;;;3.75;2.10;;;20.10;95.70;;;;;;5117476;28;20103;-71
2021/10/20 12:22:03;;;;;;;4.22;1.95;;;20.10;95.80;;;;;;5100217;28;20480;-70
2021/10/20 12:24:42;;;;;;;4.35;2.45;;;20.10;96.00;;;;;;5099233;28;20023;-70
2021/10/20 12:27:10;;;;;;;5.13;2.40;;;20.10;96.10;;;;;;5117164;28;20043;-70
2021/10/20 12:29:44;;;;;;;3.85;1.88;;;20.00;96.40;;;;;;5098903;28;20024;-72
2021/10/20 12:32:19;;;;;;;5.25;2.10;;;20.00;96.50;;;;;;5117311;28;20059;-74
2021/10/20 12:34:52;;;;;;;4.43;2.13;;;20.00;96.70;;;;;;5098708;28;20080;-71
2021/10/20 12:37:19;;;;;;;5.15;2.03;;;20.00;96.80;;;;;;5119179;28;20495;-71
2021/10/20 12:39:49;;;;;;;6.65;2.10;;;20.00;96.70;;;;;;5117927;28;20478;-70
2021/10/20 12:42:16;;;;;;;2.88;2.17;;;20.10;96.70;;;;;;5116939;28;20026;-72
2021/10/20 12:44:41;;;;;;;5.28;2.13;;;20.10;96.80;;;;;;5117655;28;20031;-70
2021/10/20 12:47:07;;;;;;;8.80;3.20;;;20.10;96.60;;;;;;5098666;28;20023;-71